Time,TemperatureF,DewpointF,PressureIn,WindDirection,WindDirectionDegrees,WindSpeedMPH,WindSpeedGustMPH,Humidity,HourlyPrecipIn,Conditions,Clouds,dailyrainin,SoftwareType,DateUTC
2013-09-05 00:02:00,60.6,42.4,29.96,SSW,209,0.0,2.7,51,0.00,,,0.00,VWS V14.01,2013-09-05 07:02:00,
2013-09-05 00:07:00,60.4,42.8,29.96,South,175,3.1,4.0,52,0.00,,,0.00,VWS V14.01,2013-09-05 07:07:00,
2013-09-05 00:12:00,60.4,42.8,29.96,ESE,111,0.0,2.7,52,0.00,,,0.00,VWS V14.01,2013-09-05 07:12:00,
2013-09-05 00:17:00,60.4,42.8,29.96,SSE,165,3.1,3.6,52,0.00,,,0.00,VWS V14.01,2013-09-05 07:17:00,
2013-09-05 00:22:00,60.4,42.8,29.96,South,179,3.1,3.1,52,0.00,,,0.00,VWS V14.01,2013-09-05 07:22:00,
2013-09-05 00:27:00,60.4,42.8,29.96,South,173,0.0,3.6,52,0.00,,,0.00,VWS V14.01,2013-09-05 07:27:00,
2013-09-05 00:32:00,60.4,42.8,29.96,SE,138,2.2,3.6,52,0.00,,,0.00,VWS V14.01,2013-09-05 07:32:00,
2013-09-05 00:37:00,60.4,43.2,29.96,SSE,159,0.0,4.0,53,0.00,,,0.00,VWS V14.01,2013-09-05 07:37:00,
2013-09-05 00:42:00,60.4,43.2,29.96,SSE,162,2.7,2.7,53,0.00,,,0.00,VWS V14.01,2013-09-05 07:42:00,
2013-09-05 00:47:00,60.3,43.1,29.96,SSE,167,0.0,0.0,53,0.00,,,0.00,VWS V14.01,2013-09-05 07:47:00,
2013-09-05 00:52:00,60.3,43.1,29.96,South,178,0.0,2.7,53,0.00,,,0.00,VWS V14.01,2013-09-05 07:52:00,
2013-09-05 00:57:00,60.1,42.9,29.96,SSW,210,3.6,3.6,53,0.00,,,0.00,VWS V14.01,2013-09-05 07:57:00,
2013-09-05 01:02:00,60.3,43.1,29.96,SW,221,0.0,2.7,53,0.00,,,0.00,VWS V14.01,2013-09-05 08:02:00,
2013-09-05 01:07:00,60.3,43.1,29.96,South,172,0.0,5.4,53,0.00,,,0.00,VWS V14.01,2013-09-05 08:07:00,
2013-09-05 01:12:00,60.3,43.6,29.96,SSE,160,3.6,3.6,54,0.00,,,0.00,VWS V14.01,2013-09-05 08:12:00,
2013-09-05 01:17:00,60.3,43.6,29.96,SSW,202,3.6,4.0,54,0.00,,,0.00,VWS V14.01,2013-09-05 08:17:00,
2013-09-05 01:22:00,60.4,43.7,29.96,ESE,122,4.9,4.9,54,0.00,,,0.00,VWS V14.01,2013-09-05 08:22:00,
2013-09-05 01:27:00,60.4,44.2,29.96,SSW,195,2.7,3.1,55,0.00,,,0.00,VWS V14.01,2013-09-05 08:27:00,
2013-09-05 01:32:00,60.4,44.2,29.96,SSE,164,0.0,0.0,55,0.00,,,0.00,VWS V14.01,2013-09-05 08:32:00,
2013-09-05 01:37:00,60.6,44.4,29.96,South,169,3.1,5.4,55,0.00,,,0.00,VWS V14.01,2013-09-05 08:37:00,
2013-09-05 01:42:00,60.6,44.4,29.96,South,180,3.1,4.0,55,0.00,,,0.00,VWS V14.01,2013-09-05 08:42:00,
2013-09-05 01:47:00,60.6,44.8,29.96,SSE,162,2.7,2.7,56,0.00,,,0.00,VWS V14.01,2013-09-05 08:47:00,
2013-09-05 01:52:00,60.8,44.5,29.96,SSE,152,4.9,4.9,55,0.00,,,0.00,VWS V14.01,2013-09-05 08:52:00,
2013-09-05 01:57:00,60.8,44.5,29.96,ESE,106,3.6,3.6,55,0.00,,,0.00,VWS V14.01,2013-09-05 08:57:00,
2013-09-05 02:02:00,60.6,44.4,29.96,South,185,2.7,5.4,55,0.00,,,0.00,VWS V14.01,2013-09-05 09:02:00,
2013-09-05 02:07:00,60.6,44.4,29.96,SSE,151,0.0,2.2,55,0.00,,,0.00,VWS V14.01,2013-09-05 09:07:00,
2013-09-05 02:12:00,60.6,44.4,29.96,South,177,0.0,2.7,55,0.00,,,0.00,VWS V14.01,2013-09-05 09:12:00,
2013-09-05 02:17:00,60.6,44.4,29.96,South,176,0.0,0.0,55,0.00,,,0.00,VWS V14.01,2013-09-05 09:17:00,
2013-09-05 02:22:00,60.4,44.2,29.96,SSW,203,0.0,3.1,55,0.00,,,0.00,VWS V14.01,2013-09-05 09:22:00,
2013-09-05 02:27:00,60.4,44.2,29.96,South,178,0.0,0.0,55,0.00,,,0.00,VWS V14.01,2013-09-05 09:27:00,
2013-09-05 02:32:00,60.4,43.7,29.96,SE,130,0.0,0.0,54,0.00,,,0.00,VWS V14.01,2013-09-05 09:32:00,
2013-09-05 02:37:00,60.3,43.6,29.96,SE,130,2.2,3.1,54,0.00,,,0.00,VWS V14.01,2013-09-05 09:37:00,
2013-09-05 02:42:00,60.1,43.4,29.96,ESE,123,2.2,2.2,54,0.00,,,0.00,VWS V14.01,2013-09-05 09:42:00,
2013-09-05 02:47:00,59.9,43.2,29.96,SE,125,2.7,3.1,54,0.00,,,0.00,VWS V14.01,2013-09-05 09:47:00,
2013-09-05 02:52:00,59.7,42.6,29.96,ESE,118,3.6,3.6,53,0.00,,,0.00,VWS V14.01,2013-09-05 09:52:00,
2013-09-05 02:57:00,59.5,42.9,29.96,SE,124,0.0,2.7,54,0.00,,,0.00,VWS V14.01,2013-09-05 09:57:00,
2013-09-05 03:02:00,59.4,42.7,29.96,South,175,0.0,0.0,54,0.00,,,0.00,VWS V14.01,2013-09-05 10:02:00,
2013-09-05 03:07:00,59.4,42.7,29.96,South,179,0.0,0.0,54,0.00,,,0.00,VWS V14.01,2013-09-05 10:07:00,
2013-09-05 03:12:00,59.2,42.6,29.96,South,177,2.2,2.2,54,0.00,,,0.00,VWS V14.01,2013-09-05 10:12:00,
2013-09-05 03:17:00,59.0,42.4,29.96,SSE,159,0.0,0.0,54,0.00,,,0.00,VWS V14.01,2013-09-05 10:17:00,
2013-09-05 03:22:00,59.0,42.4,29.96,SSE,159,0.0,0.0,54,0.00,,,0.00,VWS V14.01,2013-09-05 10:22:00,
2013-09-05 03:27:00,58.8,42.2,29.96,SSE,159,0.0,0.0,54,0.00,,,0.00,VWS V14.01,2013-09-05 10:27:00,
2013-09-05 03:32:00,58.8,42.2,29.96,SSE,159,0.0,0.0,54,0.00,,,0.00,VWS V14.01,2013-09-05 10:32:00,
2013-09-05 03:37:00,58.6,42.1,29.96,SSE,159,0.0,0.0,54,0.00,,,0.00,VWS V14.01,2013-09-05 10:37:00,
2013-09-05 03:42:00,58.8,42.7,29.96,WSW,241,2.7,2.7,55,0.00,,,0.00,VWS V14.01,2013-09-05 10:42:00,
2013-09-05 03:47:00,58.8,42.7,29.96,South,176,0.0,0.0,55,0.00,,,0.00,VWS V14.01,2013-09-05 10:47:00,
2013-09-05 03:52:00,58.8,42.7,29.96,SSE,162,0.0,0.0,55,0.00,,,0.00,VWS V14.01,2013-09-05 10:52:00,
2013-09-05 03:57:00,58.8,42.7,29.96,SSE,162,0.0,0.0,55,0.00,,,0.00,VWS V14.01,2013-09-05 10:57:00,
2013-09-05 04:02:00,58.8,42.7,29.96,ESE,121,2.7,2.7,55,0.00,,,0.00,VWS V14.01,2013-09-05 11:02:00,
2013-09-05 04:07:00,58.8,43.2,29.96,SSE,155,0.0,2.7,56,0.00,,,0.00,VWS V14.01,2013-09-05 11:07:00,
2013-09-05 04:12:00,58.8,43.2,29.96,SSE,167,0.0,0.0,56,0.00,,,0.00,VWS V14.01,2013-09-05 11:12:00,
2013-09-05 04:17:00,58.8,43.2,29.96,SE,142,2.7,2.7,56,0.00,,,0.00,VWS V14.01,2013-09-05 11:17:00,
2013-09-05 04:22:00,58.8,43.2,29.96,SSW,205,0.0,2.7,56,0.00,,,0.00,VWS V14.01,2013-09-05 11:22:00,
2013-09-05 04:27:00,58.8,43.2,29.96,SSW,192,3.1,3.1,56,0.00,,,0.00,VWS V14.01,2013-09-05 11:27:00,
2013-09-05 04:32:00,59.0,43.3,29.96,South,189,2.2,3.1,56,0.00,,,0.00,VWS V14.01,2013-09-05 11:32:00,
2013-09-05 04:37:00,59.2,44.0,29.96,SW,218,2.7,3.1,57,0.00,,,0.00,VWS V14.01,2013-09-05 11:37:00,
2013-09-05 04:42:00,59.4,44.1,29.96,South,188,0.0,2.7,57,0.00,,,0.00,VWS V14.01,2013-09-05 11:42:00,
2013-09-05 04:47:00,59.5,44.3,29.96,South,169,0.0,4.0,57,0.00,,,0.00,VWS V14.01,2013-09-05 11:47:00,
2013-09-05 04:52:00,59.5,44.3,29.96,SSE,168,0.0,2.2,57,0.00,,,0.00,VWS V14.01,2013-09-05 11:52:00,
2013-09-05 04:57:00,59.5,44.3,29.96,SSW,211,2.2,3.6,57,0.00,,,0.00,VWS V14.01,2013-09-05 11:57:00,
2013-09-05 05:02:00,59.5,44.3,29.96,SSE,154,0.0,0.0,57,0.00,,,0.00,VWS V14.01,2013-09-05 12:02:00,
2013-09-05 05:07:00,59.4,44.1,29.96,SE,134,0.0,2.2,57,0.00,,,0.00,VWS V14.01,2013-09-05 12:07:00,
2013-09-05 05:12:00,59.4,44.1,29.96,ESE,103,0.0,2.2,57,0.00,,,0.00,VWS V14.01,2013-09-05 12:12:00,
2013-09-05 05:18:00,59.4,44.1,29.96,South,181,0.0,0.0,57,0.00,,,0.00,VWS V14.01,2013-09-05 12:18:00,
2013-09-05 05:22:00,59.2,44.0,29.96,South,188,0.0,0.0,57,0.00,,,0.00,VWS V14.01,2013-09-05 12:22:00,
2013-09-05 05:27:00,59.2,44.0,29.96,SSW,212,0.0,0.0,57,0.00,,,0.00,VWS V14.01,2013-09-05 12:27:00,
2013-09-05 05:32:00,59.0,43.8,29.96,SSW,201,0.0,0.0,57,0.00,,,0.00,VWS V14.01,2013-09-05 12:32:00,
2013-09-05 05:38:00,58.8,44.1,29.96,SSW,201,0.0,0.0,58,0.00,,,0.00,VWS V14.01,2013-09-05 12:38:00,
2013-09-05 05:43:00,58.8,44.1,29.96,SW,226,0.0,0.0,58,0.00,,,0.00,VWS V14.01,2013-09-05 12:43:00,
2013-09-05 05:48:00,58.6,43.5,29.96,SW,226,0.0,0.0,57,0.00,,,0.00,VWS V14.01,2013-09-05 12:48:00,
2013-09-05 05:53:00,58.6,43.9,29.96,SSW,195,0.0,0.0,58,0.00,,,0.00,VWS V14.01,2013-09-05 12:53:00,
2013-09-05 05:58:00,58.5,43.8,29.96,SSE,155,0.0,0.0,58,0.00,,,0.00,VWS V14.01,2013-09-05 12:58:00,
2013-09-05 06:03:00,58.6,43.9,29.96,SSE,157,0.0,0.0,58,0.00,,,0.00,VWS V14.01,2013-09-05 13:03:00,
2013-09-05 06:07:00,58.6,43.9,29.96,SSW,193,0.0,0.0,58,0.00,,,0.00,VWS V14.01,2013-09-05 13:07:00,
2013-09-05 06:12:00,58.5,43.8,29.96,SSW,193,0.0,0.0,58,0.00,,,0.00,VWS V14.01,2013-09-05 13:12:00,
2013-09-05 06:18:00,58.5,43.8,29.96,SSW,194,0.0,0.0,58,0.00,,,0.00,VWS V14.01,2013-09-05 13:18:00,
2013-09-05 06:23:00,58.5,43.8,29.96,South,173,0.0,0.0,58,0.00,,,0.00,VWS V14.01,2013-09-05 13:23:00,
2013-09-05 06:27:00,58.5,43.8,29.96,SSE,168,0.0,0.0,58,0.00,,,0.00,VWS V14.01,2013-09-05 13:27:00,
2013-09-05 06:33:00,58.5,44.2,29.96,South,175,0.0,2.7,59,0.00,,,0.00,VWS V14.01,2013-09-05 13:33:00,
2013-09-05 06:38:00,58.5,44.2,29.99,South,173,0.0,0.0,59,0.00,,,0.00,VWS V14.01,2013-09-05 13:38:00,
2013-09-05 06:43:00,58.5,44.2,29.99,South,173,0.0,0.0,59,0.00,,,0.00,VWS V14.01,2013-09-05 13:43:00,
2013-09-05 06:48:00,58.5,44.2,29.99,South,189,0.0,0.0,59,0.00,,,0.00,VWS V14.01,2013-09-05 13:48:00,
2013-09-05 06:53:00,58.5,44.2,29.99,South,175,0.0,2.7,59,0.00,,,0.00,VWS V14.01,2013-09-05 13:53:00,
2013-09-05 06:58:00,58.5,44.6,29.99,SSE,152,0.0,0.0,60,0.00,,,0.00,VWS V14.01,2013-09-05 13:58:00,
2013-09-05 07:03:00,58.6,44.8,29.99,SW,234,2.7,2.7,60,0.00,,,0.00,VWS V14.01,2013-09-05 14:03:00,
2013-09-05 07:08:00,58.8,45.0,29.99,SSW,194,0.0,0.0,60,0.00,,,0.00,VWS V14.01,2013-09-05 14:08:00,
2013-09-05 07:13:00,58.8,45.0,29.99,SSW,194,0.0,0.0,60,0.00,,,0.00,VWS V14.01,2013-09-05 14:13:00,
2013-09-05 07:18:00,58.8,45.0,29.99,SSW,194,0.0,0.0,60,0.00,,,0.00,VWS V14.01,2013-09-05 14:18:00,
2013-09-05 07:23:00,58.8,45.0,29.99,SSE,166,2.7,2.7,60,0.00,,,0.00,VWS V14.01,2013-09-05 14:23:00,
2013-09-05 07:28:00,58.8,45.0,29.99,South,181,0.0,0.0,60,0.00,,,0.00,VWS V14.01,2013-09-05 14:28:00,
2013-09-05 07:33:00,58.8,45.4,29.99,South,186,0.0,0.0,61,0.00,,,0.00,VWS V14.01,2013-09-05 14:33:00,
2013-09-05 07:38:00,58.8,45.4,29.99,South,180,0.0,0.0,61,0.00,,,0.00,VWS V14.01,2013-09-05 14:38:00,
2013-09-05 07:43:00,59.0,45.6,29.99,SW,230,0.0,0.0,61,0.00,,,0.00,VWS V14.01,2013-09-05 14:43:00,
2013-09-05 07:48:00,59.4,46.3,29.99,SSE,166,0.0,0.0,62,0.00,,,0.00,VWS V14.01,2013-09-05 14:48:00,
2013-09-05 07:53:00,59.7,47.1,29.99,South,179,0.0,0.0,63,0.00,,,0.00,VWS V14.01,2013-09-05 14:53:00,
2013-09-05 07:58:00,60.1,47.5,29.99,SSE,157,0.0,2.7,63,0.00,,,0.00,VWS V14.01,2013-09-05 14:58:00,
2013-09-05 08:03:00,60.4,47.8,29.99,South,187,3.1,3.1,63,0.00,,,0.00,VWS V14.01,2013-09-05 15:03:00,
2013-09-05 08:08:00,60.8,47.7,29.99,SSW,196,2.2,2.7,62,0.00,,,0.00,VWS V14.01,2013-09-05 15:08:00,
2013-09-05 08:13:00,61.2,48.5,29.99,WSW,240,3.1,3.1,63,0.00,,,0.00,VWS V14.01,2013-09-05 15:13:00,
2013-09-05 08:18:00,61.5,48.4,29.99,South,181,2.7,3.1,62,0.00,,,0.00,VWS V14.01,2013-09-05 15:18:00,
2013-09-05 08:23:00,61.9,48.3,29.99,SW,220,3.6,3.6,61,0.00,,,0.00,VWS V14.01,2013-09-05 15:23:00,
2013-09-05 08:28:00,62.2,48.2,29.99,SW,231,3.1,3.1,60,0.00,,,0.00,VWS V14.01,2013-09-05 15:28:00,
2013-09-05 08:33:00,62.6,47.2,29.99,WSW,248,3.6,3.6,57,0.00,,,0.00,VWS V14.01,2013-09-05 15:33:00,
2013-09-05 08:38:00,63.1,46.7,29.99,SW,216,3.1,3.1,55,0.00,,,0.00,VWS V14.01,2013-09-05 15:38:00,
2013-09-05 08:43:00,63.3,45.4,29.99,SW,235,0.0,0.0,52,0.00,,,0.00,VWS V14.01,2013-09-05 15:43:00,
2013-09-05 08:48:00,63.1,44.2,29.99,SW,215,2.7,4.9,50,0.00,,,0.00,VWS V14.01,2013-09-05 15:48:00,
2013-09-05 08:53:00,63.3,43.8,29.99,SW,218,2.7,2.7,49,0.00,,,0.00,VWS V14.01,2013-09-05 15:53:00,
2013-09-05 08:58:00,63.5,42.9,29.99,South,187,2.7,3.1,47,0.00,,,0.00,VWS V14.01,2013-09-05 15:58:00,
2013-09-05 09:03:00,63.9,42.7,29.99,SSW,212,4.0,4.0,46,0.00,,,0.00,VWS V14.01,2013-09-05 16:03:00,
2013-09-05 09:08:00,64.0,42.3,29.99,SSW,203,5.4,5.4,45,0.00,,,0.00,VWS V14.01,2013-09-05 16:08:00,
2013-09-05 09:13:00,64.2,41.9,29.99,SW,220,2.7,2.7,44,0.00,,,0.00,VWS V14.01,2013-09-05 16:13:00,
2013-09-05 09:18:00,64.4,40.2,29.99,South,189,3.6,3.6,41,0.00,,,0.00,VWS V14.01,2013-09-05 16:18:00,
2013-09-05 09:23:00,64.8,38.6,29.99,East,92,3.1,3.1,38,0.00,,,0.00,VWS V14.01,2013-09-05 16:23:00,
2013-09-05 09:28:00,64.9,38.1,29.99,SSW,204,2.7,3.1,37,0.00,,,0.00,VWS V14.01,2013-09-05 16:28:00,
2013-09-05 09:33:00,65.1,36.1,29.99,SW,232,6.3,6.3,34,0.00,,,0.00,VWS V14.01,2013-09-05 16:33:00,
2013-09-05 09:38:00,65.3,34.7,29.99,SSW,198,6.3,6.3,32,0.00,,,0.00,VWS V14.01,2013-09-05 16:38:00,
2013-09-05 09:43:00,65.5,32.4,29.99,SSE,156,4.0,5.8,29,0.00,,,0.00,VWS V14.01,2013-09-05 16:43:00,
2013-09-05 09:48:00,65.8,32.7,29.99,SW,222,2.7,2.7,29,0.00,,,0.00,VWS V14.01,2013-09-05 16:48:00,
2013-09-05 09:53:00,66.2,31.3,29.99,SW,235,6.3,6.3,27,0.00,,,0.00,VWS V14.01,2013-09-05 16:53:00,
2013-09-05 09:58:00,66.6,28.7,29.99,SW,221,6.3,6.3,24,0.00,,,0.00,VWS V14.01,2013-09-05 16:58:00,
2013-09-05 10:03:00,66.9,27.9,29.99,South,183,5.4,5.4,23,0.00,,,0.00,VWS V14.01,2013-09-05 17:03:00,
2013-09-05 10:08:00,67.3,28.2,30.02,SSW,211,5.4,5.4,23,0.00,,,0.00,VWS V14.01,2013-09-05 17:08:00,
2013-09-05 10:13:00,67.5,28.4,30.02,SSE,165,3.6,4.9,23,0.00,,,0.00,VWS V14.01,2013-09-05 17:13:00,
2013-09-05 10:18:00,67.6,27.5,30.02,SW,223,3.6,4.0,22,0.00,,,0.00,VWS V14.01,2013-09-05 17:18:00,
2013-09-05 10:23:00,67.8,27.6,30.02,SW,223,3.6,3.6,22,0.00,,,0.00,VWS V14.01,2013-09-05 17:23:00,
2013-09-05 10:28:00,68.2,25.6,30.02,South,179,2.7,2.7,20,0.00,,,0.00,VWS V14.01,2013-09-05 17:28:00,
2013-09-05 10:33:00,68.5,22.0,30.02,SSW,211,4.0,4.9,17,0.00,,,0.00,VWS V14.01,2013-09-05 17:33:00,
2013-09-05 10:38:00,68.7,22.2,29.99,SSW,204,4.0,4.0,17,0.00,,,0.00,VWS V14.01,2013-09-05 17:38:00,
2013-09-05 10:43:00,68.9,22.3,29.99,South,169,3.1,3.1,17,0.00,,,0.00,VWS V14.01,2013-09-05 17:43:00,
2013-09-05 10:48:00,68.9,19.4,29.99,South,177,3.6,3.6,15,0.00,,,0.00,VWS V14.01,2013-09-05 17:48:00,
2013-09-05 10:53:00,69.3,22.6,30.02,SW,231,5.8,5.8,17,0.00,,,0.00,VWS V14.01,2013-09-05 17:53:00,
2013-09-05 10:58:00,69.3,19.7,30.02,SSE,154,4.0,4.0,15,0.00,,,0.00,VWS V14.01,2013-09-05 17:58:00,
2013-09-05 11:03:00,69.6,20.0,30.02,SSW,202,3.1,5.8,15,0.00,,,0.00,VWS V14.01,2013-09-05 18:03:00,
2013-09-05 11:08:00,69.8,18.5,30.02,South,190,2.2,4.0,14,0.00,,,0.00,VWS V14.01,2013-09-05 18:08:00,
2013-09-05 11:13:00,70.2,18.8,30.02,SSE,168,3.6,5.4,14,0.00,,,0.00,VWS V14.01,2013-09-05 18:13:00,
2013-09-05 11:19:00,70.3,18.9,30.02,WSW,246,4.9,5.8,14,0.00,,,0.00,VWS V14.01,2013-09-05 18:19:00,
2013-09-05 11:24:00,70.5,19.1,30.02,South,190,3.1,8.3,14,0.00,,,0.00,VWS V14.01,2013-09-05 18:24:00,
2013-09-05 11:29:00,70.5,19.1,30.02,WSW,258,5.4,7.2,14,0.00,,,0.00,VWS V14.01,2013-09-05 18:29:00,
2013-09-05 11:34:00,70.7,19.2,30.02,East,87,2.7,4.0,14,0.00,,,0.00,VWS V14.01,2013-09-05 18:34:00,
2013-09-05 11:39:00,71.1,19.5,30.02,SSW,206,3.6,5.8,14,0.00,,,0.00,VWS V14.01,2013-09-05 18:39:00,
2013-09-05 11:44:00,71.6,14.4,30.02,WSW,250,5.4,5.4,11,0.00,,,0.00,VWS V14.01,2013-09-05 18:44:00,
2013-09-05 11:49:00,71.6,14.4,30.02,SSW,211,2.7,4.5,11,0.00,,,0.00,VWS V14.01,2013-09-05 18:49:00,
2013-09-05 11:54:00,72.0,14.6,30.02,SW,214,2.2,7.2,11,0.00,,,0.00,VWS V14.01,2013-09-05 18:54:00,
2013-09-05 11:59:00,72.0,14.6,30.02,SSW,204,4.0,5.8,11,0.00,,,0.00,VWS V14.01,2013-09-05 18:59:00,
2013-09-05 12:04:00,71.8,14.5,30.02,SSW,211,5.4,6.3,11,0.00,,,0.00,VWS V14.01,2013-09-05 19:04:00,
2013-09-05 12:09:00,71.8,14.5,30.02,SSW,201,4.9,4.9,11,0.00,,,0.00,VWS V14.01,2013-09-05 19:09:00,
2013-09-05 12:14:00,72.3,14.9,30.02,South,187,4.0,5.8,11,0.00,,,0.00,VWS V14.01,2013-09-05 19:14:00,
2013-09-05 12:19:00,72.3,14.9,30.02,SW,221,6.3,6.3,11,0.00,,,0.00,VWS V14.01,2013-09-05 19:19:00,
2013-09-05 12:24:00,72.7,15.2,30.02,SW,215,5.4,5.4,11,0.00,,,0.00,VWS V14.01,2013-09-05 19:24:00,
2013-09-05 12:29:00,73.0,15.5,30.02,SW,218,5.8,5.8,11,0.00,,,0.00,VWS V14.01,2013-09-05 19:29:00,
2013-09-05 12:34:00,73.0,15.5,30.02,SSW,211,6.3,8.3,11,0.00,,,0.00,VWS V14.01,2013-09-05 19:34:00,
2013-09-05 12:39:00,72.9,10.8,30.02,SW,222,6.3,7.6,9,0.00,,,0.00,VWS V14.01,2013-09-05 19:39:00,
2013-09-05 12:44:00,73.0,10.9,30.02,SSW,207,3.1,5.8,9,0.00,,,0.00,VWS V14.01,2013-09-05 19:44:00,
2013-09-05 12:49:00,73.4,8.6,30.02,SSW,201,5.4,6.3,8,0.00,,,0.00,VWS V14.01,2013-09-05 19:49:00,
2013-09-05 12:54:00,73.8,8.8,30.02,SSW,196,4.0,5.4,8,0.00,,,0.00,VWS V14.01,2013-09-05 19:54:00,
2013-09-05 12:59:00,74.5,9.4,30.02,SW,231,5.4,6.3,8,0.00,,,0.00,VWS V14.01,2013-09-05 19:59:00,
2013-09-05 13:04:00,75.0,9.8,30.02,WSW,251,2.7,5.4,8,0.00,,,0.00,VWS V14.01,2013-09-05 20:04:00,
2013-09-05 13:09:00,74.7,9.5,30.02,SSE,159,5.8,7.6,8,0.00,,,0.00,VWS V14.01,2013-09-05 20:09:00,
2013-09-05 13:14:00,74.1,9.1,30.02,SSW,194,2.7,5.8,8,0.00,,,0.00,VWS V14.01,2013-09-05 20:14:00,
2013-09-05 13:19:00,74.1,9.1,30.02,WSW,251,6.3,6.3,8,0.00,,,0.00,VWS V14.01,2013-09-05 20:19:00,
2013-09-05 13:24:00,74.8,9.6,30.02,WSW,249,2.2,3.1,8,0.00,,,0.00,VWS V14.01,2013-09-05 20:24:00,
2013-09-05 13:29:00,74.7,9.5,30.02,SW,233,4.0,4.9,8,0.00,,,0.00,VWS V14.01,2013-09-05 20:29:00,
2013-09-05 13:34:00,74.8,9.6,30.02,SW,219,3.6,4.0,8,0.00,,,0.00,VWS V14.01,2013-09-05 20:34:00,
2013-09-05 13:39:00,75.0,9.8,30.02,SW,225,3.6,8.1,8,0.00,,,0.00,VWS V14.01,2013-09-05 20:39:00,
2013-09-05 13:44:00,75.0,9.8,30.02,SSW,209,3.1,4.0,8,0.00,,,0.00,VWS V14.01,2013-09-05 20:44:00,
2013-09-05 13:49:00,75.2,9.9,30.02,SSW,196,3.1,5.4,8,0.00,,,0.00,VWS V14.01,2013-09-05 20:49:00,
2013-09-05 13:54:00,75.4,10.0,30.02,SSW,210,3.1,3.6,8,0.00,,,0.00,VWS V14.01,2013-09-05 20:54:00,
2013-09-05 13:59:00,75.7,10.3,30.02,SW,218,5.4,5.8,8,0.00,,,0.00,VWS V14.01,2013-09-05 20:59:00,
2013-09-05 14:04:00,75.9,10.4,30.02,South,169,2.2,4.0,8,0.00,,,0.00,VWS V14.01,2013-09-05 21:04:00,
2013-09-05 14:09:00,76.5,10.8,29.99,WSW,248,3.6,4.0,8,0.00,,,0.00,VWS V14.01,2013-09-05 21:09:00,
2013-09-05 14:14:00,76.6,11.0,29.99,SW,215,3.1,4.9,8,0.00,,,0.00,VWS V14.01,2013-09-05 21:14:00,
2013-09-05 14:19:00,77.4,11.5,29.99,SSW,213,3.1,5.4,8,0.00,,,0.00,VWS V14.01,2013-09-05 21:19:00,
2013-09-05 14:24:00,77.4,11.5,29.99,South,172,3.6,4.0,8,0.00,,,0.00,VWS V14.01,2013-09-05 21:24:00,
2013-09-05 14:29:00,77.7,11.8,29.99,SSE,164,3.1,7.2,8,0.00,,,0.00,VWS V14.01,2013-09-05 21:29:00,
2013-09-05 14:34:00,78.1,12.0,29.99,SSW,212,4.0,4.9,8,0.00,,,0.00,VWS V14.01,2013-09-05 21:34:00,
2013-09-05 14:39:00,78.3,12.2,29.99,SSE,167,3.6,6.3,8,0.00,,,0.00,VWS V14.01,2013-09-05 21:39:00,
2013-09-05 14:44:00,78.4,12.3,29.99,SW,229,5.4,5.4,8,0.00,,,0.00,VWS V14.01,2013-09-05 21:44:00,
2013-09-05 14:49:00,78.3,12.2,29.99,South,175,2.7,4.9,8,0.00,,,0.00,VWS V14.01,2013-09-05 21:49:00,
2013-09-05 14:54:00,78.6,12.4,29.99,SW,229,2.7,4.0,8,0.00,,,0.00,VWS V14.01,2013-09-05 21:54:00,
2013-09-05 14:59:00,78.6,12.4,29.99,SSW,202,3.6,6.3,8,0.00,,,0.00,VWS V14.01,2013-09-05 21:59:00,
2013-09-05 15:04:00,78.6,12.4,29.99,SW,214,6.3,6.3,8,0.00,,,0.00,VWS V14.01,2013-09-05 22:04:00,
2013-09-05 15:09:00,78.3,12.2,29.99,West,277,6.3,10.1,8,0.00,,,0.00,VWS V14.01,2013-09-05 22:09:00,
2013-09-05 15:14:00,78.1,12.0,29.99,SSW,201,8.1,8.1,8,0.00,,,0.00,VWS V14.01,2013-09-05 22:14:00,
2013-09-05 15:19:00,78.1,12.0,29.99,NW,317,4.0,4.0,8,0.00,,,0.00,VWS V14.01,2013-09-05 22:19:00,
2013-09-05 15:24:00,77.7,11.8,29.99,WSW,238,7.6,7.6,8,0.00,,,0.00,VWS V14.01,2013-09-05 22:24:00,
2013-09-05 15:29:00,77.5,11.6,29.99,SW,227,5.4,8.3,8,0.00,,,0.00,VWS V14.01,2013-09-05 22:29:00,
2013-09-05 15:34:00,77.7,11.8,29.99,WSW,243,3.6,3.6,8,0.00,,,0.00,VWS V14.01,2013-09-05 22:34:00,
2013-09-05 15:39:00,77.9,11.9,29.99,SW,226,3.1,8.7,8,0.00,,,0.00,VWS V14.01,2013-09-05 22:39:00,
2013-09-05 15:44:00,77.9,11.9,29.99,SW,225,4.0,6.3,8,0.00,,,0.00,VWS V14.01,2013-09-05 22:44:00,
2013-09-05 15:49:00,77.9,11.9,29.99,SSW,199,8.1,8.1,8,0.00,,,0.00,VWS V14.01,2013-09-05 22:49:00,
2013-09-05 15:54:00,77.5,11.6,29.99,South,179,6.3,6.3,8,0.00,,,0.00,VWS V14.01,2013-09-05 22:54:00,
2013-09-05 15:59:00,77.4,11.5,29.99,SW,233,5.8,5.8,8,0.00,,,0.00,VWS V14.01,2013-09-05 22:59:00,
2013-09-05 16:04:00,77.5,11.6,29.99,WSW,249,7.6,7.6,8,0.00,,,0.00,VWS V14.01,2013-09-05 23:04:00,
2013-09-05 16:09:00,77.2,11.4,29.99,South,185,7.2,7.2,8,0.00,,,0.00,VWS V14.01,2013-09-05 23:09:00,
2013-09-05 16:14:00,77.2,11.4,29.99,SW,217,5.4,5.4,8,0.00,,,0.00,VWS V14.01,2013-09-05 23:14:00,
2013-09-05 16:19:00,77.5,11.6,29.99,SW,232,4.5,5.4,8,0.00,,,0.00,VWS V14.01,2013-09-05 23:19:00,
2013-09-05 16:24:00,77.7,11.8,29.99,SW,228,4.9,5.8,8,0.00,,,0.00,VWS V14.01,2013-09-05 23:24:00,
2013-09-05 16:29:00,77.9,11.9,29.99,West,275,3.6,6.3,8,0.00,,,0.00,VWS V14.01,2013-09-05 23:29:00,
2013-09-05 16:34:00,77.4,11.5,29.99,SW,215,6.7,6.7,8,0.00,,,0.00,VWS V14.01,2013-09-05 23:34:00,
2013-09-05 16:39:00,77.0,11.2,29.99,WSW,243,4.0,5.8,8,0.00,,,0.00,VWS V14.01,2013-09-05 23:39:00,
2013-09-05 16:44:00,76.6,11.0,29.99,SW,230,5.4,5.8,8,0.00,,,0.00,VWS V14.01,2013-09-05 23:44:00,
2013-09-05 16:49:00,76.8,11.1,29.99,South,177,4.0,5.8,8,0.00,,,0.00,VWS V14.01,2013-09-05 23:49:00,
2013-09-05 16:54:00,76.5,10.8,29.96,South,176,6.3,6.3,8,0.00,,,0.00,VWS V14.01,2013-09-05 23:54:00,
2013-09-05 16:59:00,76.1,10.6,29.96,SW,227,4.0,4.0,8,0.00,,,0.00,VWS V14.01,2013-09-05 23:59:00,
2013-09-05 17:04:00,75.9,10.4,29.96,SW,218,5.8,5.8,8,0.00,,,0.00,VWS V14.01,2013-09-06 00:04:00,
2013-09-05 17:09:00,75.7,10.3,29.96,SW,234,4.5,4.5,8,0.00,,,0.00,VWS V14.01,2013-09-06 00:09:00,
2013-09-05 17:14:00,75.4,10.0,29.96,SSW,202,4.9,4.9,8,0.00,,,0.00,VWS V14.01,2013-09-06 00:14:00,
2013-09-05 17:19:00,75.4,10.0,29.96,SSE,166,4.0,4.9,8,0.00,,,0.00,VWS V14.01,2013-09-06 00:19:00,
2013-09-05 17:24:00,75.6,10.2,29.96,SSW,201,2.7,3.6,8,0.00,,,0.00,VWS V14.01,2013-09-06 00:24:00,
2013-09-05 17:29:00,75.2,9.9,29.96,WSW,242,4.0,4.0,8,0.00,,,0.00,VWS V14.01,2013-09-06 00:29:00,
2013-09-05 17:34:00,74.8,9.6,29.96,ESE,116,2.7,2.7,8,0.00,,,0.00,VWS V14.01,2013-09-06 00:34:00,
2013-09-05 17:39:00,74.7,9.5,29.96,West,265,3.1,3.6,8,0.00,,,0.00,VWS V14.01,2013-09-06 00:39:00,
2013-09-05 17:44:00,74.5,9.4,29.96,NW,306,5.8,5.8,8,0.00,,,0.00,VWS V14.01,2013-09-06 00:44:00,
2013-09-05 17:49:00,73.9,9.0,29.96,SW,216,2.2,3.1,8,0.00,,,0.00,VWS V14.01,2013-09-06 00:49:00,
2013-09-05 17:54:00,74.1,9.1,29.96,WSW,238,5.8,6.3,8,0.00,,,0.00,VWS V14.01,2013-09-06 00:54:00,
2013-09-05 17:59:00,73.2,11.1,29.96,South,191,4.0,4.0,9,0.00,,,0.00,VWS V14.01,2013-09-06 00:59:00,
2013-09-05 18:04:00,72.7,10.6,29.96,SW,230,5.4,5.4,9,0.00,,,0.00,VWS V14.01,2013-09-06 01:04:00,
2013-09-05 18:09:00,72.3,14.9,29.96,SW,228,4.9,4.9,11,0.00,,,0.00,VWS V14.01,2013-09-06 01:09:00,
2013-09-05 18:14:00,71.8,14.5,29.96,WSW,242,5.4,5.4,11,0.00,,,0.00,VWS V14.01,2013-09-06 01:14:00,
2013-09-05 18:19:00,71.6,14.4,29.96,SSW,196,4.0,4.9,11,0.00,,,0.00,VWS V14.01,2013-09-06 01:19:00,
2013-09-05 18:24:00,71.1,15.9,29.96,WSW,244,3.1,3.1,12,0.00,,,0.00,VWS V14.01,2013-09-06 01:24:00,
2013-09-05 18:29:00,71.1,15.9,29.96,WSW,238,2.7,5.4,12,0.00,,,0.00,VWS V14.01,2013-09-06 01:29:00,
2013-09-05 18:34:00,71.1,9.4,29.96,WNW,294,3.6,7.6,9,0.00,,,0.00,VWS V14.01,2013-09-06 01:34:00,
2013-09-05 18:39:00,71.1,9.4,29.96,SW,227,6.3,6.3,9,0.00,,,0.00,VWS V14.01,2013-09-06 01:39:00,
2013-09-05 18:44:00,70.9,9.3,29.96,WSW,257,5.4,6.7,9,0.00,,,0.00,VWS V14.01,2013-09-06 01:44:00,
2013-09-05 18:49:00,70.5,9.0,29.96,WNW,285,5.8,10.1,9,0.00,,,0.00,VWS V14.01,2013-09-06 01:49:00,
2013-09-05 18:54:00,70.2,8.7,29.96,WNW,283,4.0,10.5,9,0.00,,,0.00,VWS V14.01,2013-09-06 01:54:00,
2013-09-05 18:59:00,69.8,8.5,29.96,WNW,296,2.7,3.6,9,0.00,,,0.00,VWS V14.01,2013-09-06 01:59:00,
2013-09-05 19:04:00,69.6,10.7,29.96,WNW,295,12.3,12.3,10,0.00,,,0.00,VWS V14.01,2013-09-06 02:04:00,
2013-09-05 19:09:00,69.3,10.4,29.96,WNW,284,4.0,6.3,10,0.00,,,0.00,VWS V14.01,2013-09-06 02:09:00,
2013-09-05 19:14:00,68.9,10.1,29.96,WSW,248,4.0,5.4,10,0.00,,,0.00,VWS V14.01,2013-09-06 02:14:00,
2013-09-05 19:19:00,68.7,10.0,29.96,SW,229,2.7,6.3,10,0.00,,,0.00,VWS V14.01,2013-09-06 02:19:00,
2013-09-05 19:24:00,68.2,9.6,29.96,West,265,5.4,5.4,10,0.00,,,0.00,VWS V14.01,2013-09-06 02:24:00,
2013-09-05 19:29:00,67.6,9.1,29.96,SSW,195,3.1,4.0,10,0.00,,,0.00,VWS V14.01,2013-09-06 02:29:00,
2013-09-05 19:34:00,67.1,12.8,29.96,SSW,195,3.1,3.1,12,0.00,,,0.00,VWS V14.01,2013-09-06 02:34:00,
2013-09-05 19:39:00,66.7,12.5,29.96,WSW,256,5.4,5.4,12,0.00,,,0.00,VWS V14.01,2013-09-06 02:39:00,
2013-09-05 19:44:00,66.4,12.3,29.96,SW,224,3.6,4.0,12,0.00,,,0.00,VWS V14.01,2013-09-06 02:44:00,
2013-09-05 19:49:00,66.0,13.8,29.96,SSW,209,3.1,3.6,13,0.00,,,0.00,VWS V14.01,2013-09-06 02:49:00,
2013-09-05 19:54:00,65.8,13.6,29.96,WSW,237,3.6,3.6,13,0.00,,,0.00,VWS V14.01,2013-09-06 02:54:00,
2013-09-05 19:59:00,65.7,13.5,29.96,WSW,258,4.0,4.0,13,0.00,,,0.00,VWS V14.01,2013-09-06 02:59:00,
2013-09-05 20:04:00,65.5,13.4,29.96,West,281,5.8,5.8,13,0.00,,,0.00,VWS V14.01,2013-09-06 03:04:00,
2013-09-05 20:09:00,65.3,13.2,29.96,West,267,3.1,5.4,13,0.00,,,0.00,VWS V14.01,2013-09-06 03:09:00,
2013-09-05 20:14:00,65.1,13.1,29.96,NW,319,5.4,5.4,13,0.00,,,0.00,VWS V14.01,2013-09-06 03:14:00,
2013-09-05 20:19:00,65.1,13.1,29.96,WSW,254,5.4,6.3,13,0.00,,,0.00,VWS V14.01,2013-09-06 03:19:00,
2013-09-05 20:24:00,65.1,13.1,29.96,West,274,4.0,5.4,13,0.00,,,0.00,VWS V14.01,2013-09-06 03:24:00,
2013-09-05 20:29:00,65.1,13.1,29.96,West,281,4.0,4.9,13,0.00,,,0.00,VWS V14.01,2013-09-06 03:29:00,
2013-09-05 20:34:00,64.9,12.9,29.96,WNW,282,3.1,3.6,13,0.00,,,0.00,VWS V14.01,2013-09-06 03:34:00,
2013-09-05 20:39:00,64.9,12.9,29.99,NW,316,0.0,0.0,13,0.00,,,0.00,VWS V14.01,2013-09-06 03:39:00,
2013-09-05 20:44:00,65.1,13.1,29.99,West,281,0.0,3.1,13,0.00,,,0.00,VWS V14.01,2013-09-06 03:44:00,
2013-09-05 20:49:00,65.1,13.1,29.99,West,279,8.1,8.1,13,0.00,,,0.00,VWS V14.01,2013-09-06 03:49:00,
2013-09-05 20:54:00,65.1,13.1,29.99,WNW,288,0.0,4.0,13,0.00,,,0.00,VWS V14.01,2013-09-06 03:54:00,
2013-09-05 20:59:00,64.9,12.9,29.99,NNW,327,2.2,3.1,13,0.00,,,0.00,VWS V14.01,2013-09-06 03:59:00,
2013-09-05 21:01:00,64.9,12.9,29.99,WNW,288,3.1,4.0,13,0.00,,,0.00,VWS V14.01,2013-09-06 04:01:00,
2013-09-05 21:02:00,64.9,12.9,29.99,WNW,285,3.6,3.6,13,0.00,,,0.00,VWS V14.01,2013-09-06 04:02:00,
2013-09-05 21:03:00,64.8,12.8,29.99,WNW,284,2.7,2.7,13,0.00,,,0.00,VWS V14.01,2013-09-06 04:03:00,
2013-09-05 21:08:00,64.8,12.8,29.99,WNW,302,3.1,4.5,13,0.00,,,0.00,VWS V14.01,2013-09-06 04:08:00,
2013-09-05 21:13:00,64.8,12.8,29.99,West,279,6.3,6.3,13,0.00,,,0.00,VWS V14.01,2013-09-06 04:13:00,
2013-09-05 21:18:00,64.8,16.1,29.99,WSW,257,4.0,5.8,15,0.00,,,0.00,VWS V14.01,2013-09-06 04:18:00,
2013-09-05 21:23:00,64.8,16.1,29.99,WNW,290,0.0,2.7,15,0.00,,,0.00,VWS V14.01,2013-09-06 04:23:00,
2013-09-05 21:28:00,64.6,15.9,29.99,NW,319,2.2,4.0,15,0.00,,,0.00,VWS V14.01,2013-09-06 04:28:00,
2013-09-05 21:33:00,64.4,15.8,29.99,WNW,294,0.0,0.0,15,0.00,,,0.00,VWS V14.01,2013-09-06 04:33:00,
2013-09-05 21:38:00,64.0,17.0,29.99,NW,319,0.0,0.0,16,0.00,,,0.00,VWS V14.01,2013-09-06 04:38:00,
2013-09-05 21:43:00,63.9,16.8,29.99,NW,319,0.0,0.0,16,0.00,,,0.00,VWS V14.01,2013-09-06 04:43:00,
2013-09-05 21:48:00,63.9,19.6,29.99,West,271,0.0,2.2,18,0.00,,,0.00,VWS V14.01,2013-09-06 04:48:00,
2013-09-05 21:53:00,63.9,19.6,29.99,WNW,291,0.0,2.2,18,0.00,,,0.00,VWS V14.01,2013-09-06 04:53:00,
2013-09-05 21:58:00,63.9,23.2,29.99,WNW,291,0.0,0.0,21,0.00,,,0.00,VWS V14.01,2013-09-06 04:58:00,
2013-09-05 22:03:00,63.5,22.9,29.99,WNW,291,0.0,0.0,21,0.00,,,0.00,VWS V14.01,2013-09-06 05:03:00,
2013-09-05 22:08:00,63.5,22.9,29.99,SW,230,0.0,0.0,21,0.00,,,0.00,VWS V14.01,2013-09-06 05:08:00,
2013-09-05 22:13:00,63.5,25.1,29.99,West,281,2.7,3.1,23,0.00,,,0.00,VWS V14.01,2013-09-06 05:13:00,
2013-09-05 22:18:00,63.5,25.1,29.99,West,276,3.6,3.6,23,0.00,,,0.00,VWS V14.01,2013-09-06 05:18:00,
2013-09-05 22:23:00,63.5,26.1,29.99,West,269,2.2,3.1,24,0.00,,,0.00,VWS V14.01,2013-09-06 05:23:00,
2013-09-05 22:28:00,63.7,26.2,29.99,West,269,0.0,0.0,24,0.00,,,0.00,VWS V14.01,2013-09-06 05:28:00,
2013-09-05 22:33:00,63.5,26.1,29.99,West,269,0.0,0.0,24,0.00,,,0.00,VWS V14.01,2013-09-06 05:33:00,
2013-09-05 22:38:00,63.5,26.1,29.99,West,268,0.0,0.0,24,0.00,,,0.00,VWS V14.01,2013-09-06 05:38:00,
2013-09-05 22:43:00,63.3,25.9,29.99,West,268,0.0,0.0,24,0.00,,,0.00,VWS V14.01,2013-09-06 05:43:00,
2013-09-05 22:48:00,63.1,25.8,29.99,SW,218,2.7,2.7,24,0.00,,,0.00,VWS V14.01,2013-09-06 05:48:00,
2013-09-05 22:53:00,63.0,25.6,29.99,SSW,210,0.0,0.0,24,0.00,,,0.00,VWS V14.01,2013-09-06 05:53:00,
2013-09-05 22:58:00,62.6,25.3,29.99,SSW,210,0.0,0.0,24,0.00,,,0.00,VWS V14.01,2013-09-06 05:58:00,
2013-09-05 23:03:00,62.2,26.0,29.99,SSW,211,0.0,0.0,25,0.00,,,0.00,VWS V14.01,2013-09-06 06:03:00,
2013-09-05 23:08:00,62.1,25.9,29.99,SW,221,0.0,0.0,25,0.00,,,0.00,VWS V14.01,2013-09-06 06:08:00,
2013-09-05 23:13:00,61.7,25.5,29.99,SW,221,0.0,0.0,25,0.00,,,0.00,VWS V14.01,2013-09-06 06:13:00,
2013-09-05 23:18:00,61.3,26.2,29.99,SW,221,0.0,0.0,26,0.00,,,0.00,VWS V14.01,2013-09-06 06:18:00,
2013-09-05 23:23:00,61.0,25.9,29.99,SW,221,0.0,0.0,26,0.00,,,0.00,VWS V14.01,2013-09-06 06:23:00,
2013-09-05 23:28:00,60.6,26.5,29.99,SW,221,0.0,0.0,27,0.00,,,0.00,VWS V14.01,2013-09-06 06:28:00,
2013-09-05 23:33:00,60.6,27.4,29.99,SW,221,0.0,0.0,28,0.00,,,0.00,VWS V14.01,2013-09-06 06:33:00,
2013-09-05 23:38:00,60.4,28.9,29.99,SW,221,0.0,0.0,30,0.00,,,0.00,VWS V14.01,2013-09-06 06:38:00,
2013-09-05 23:43:00,60.3,29.5,29.99,SW,221,0.0,0.0,31,0.00,,,0.00,VWS V14.01,2013-09-06 06:43:00,
2013-09-05 23:48:00,60.4,30.5,29.99,SW,221,0.0,0.0,32,0.00,,,0.00,VWS V14.01,2013-09-06 06:48:00,
2013-09-05 23:53:00,60.4,30.5,29.99,SW,221,0.0,0.0,32,0.00,,,0.00,VWS V14.01,2013-09-06 06:53:00,
2013-09-05 23:58:00,60.4,30.5,29.99,SW,221,0.0,0.0,32,0.00,,,0.00,VWS V14.01,2013-09-06 06:58:00,